Fairfield, Utah
Current Conditions -  °F | °C
As of 8:47 AM on Sunday 23 Nov 2014 (Local Time) from KPVU Reporting Station
Scattered Clouds Scattered Clouds  
Wind Chill: 23°   Ceiling: Unl
Heat Index: 30°   Visibility: 10mi
Dew Point: 27°   Wind: 8mph
Humidity: 86%   Direction: 330°NNW
Pressure: 30.17"   Gusts: NA
Location:  40.1341°N, 112.043°W
Report Text: KPVU 231547Z 33007KT 10SM FEW020 SCT044 M01/M03 A3017
Loading
Personal Weather Stations






























Interactive Weather Map New forecast layout! Learn more

10-Day Weather Forecast

Advertisements
Track Severe Weather on mobile